createdAt,value
2022-10-20T00:01:09.178Z,12.55
2022-10-20T00:03:37.255Z,12.52
2022-10-20T00:06:11.065Z,12.58
2022-10-20T00:08:38.806Z,12.24
2022-10-20T00:11:06.603Z,12.39
2022-10-20T00:13:34.369Z,12.49
2022-10-20T00:16:02.010Z,12.21
2022-10-20T00:18:29.806Z,12.05
2022-10-20T00:20:57.370Z,11.98
2022-10-20T00:23:26.744Z,11.74
2022-10-20T00:26:02.838Z,11.72
2022-10-20T00:28:30.566Z,11.73
2022-10-20T00:30:58.234Z,11.67
2022-10-20T00:33:27.275Z,11.66
2022-10-20T00:36:20.386Z,11.60
2022-10-20T00:38:49.658Z,11.52
2022-10-20T00:41:19.724Z,11.46
2022-10-20T00:43:51.107Z,11.42
2022-10-20T00:46:21.328Z,11.42
2022-10-20T00:48:52.491Z,11.29
2022-10-20T00:51:23.266Z,11.40
2022-10-20T00:53:58.204Z,11.45
2022-10-20T00:56:25.769Z,11.55
2022-10-20T00:58:53.375Z,11.54
2022-10-20T01:01:21.001Z,11.49
2022-10-20T01:03:51.235Z,11.51
2022-10-20T01:06:21.089Z,11.50
2022-10-20T01:08:49.403Z,11.41
2022-10-20T01:11:25.318Z,11.49
2022-10-20T01:14:01.977Z,11.43
2022-10-20T01:16:40.406Z,11.41
2022-10-20T01:19:32.689Z,11.32
2022-10-20T01:22:12.276Z,11.43
2022-10-20T01:24:53.301Z,11.39
2022-10-20T01:27:33.174Z,11.35
2022-10-20T01:30:08.659Z,11.40
2022-10-20T01:32:51.033Z,11.69
2022-10-20T01:35:52.207Z,11.54
2022-10-20T01:38:27.444Z,11.74
2022-10-20T01:41:02.404Z,11.72
2022-10-20T01:43:36.451Z,11.64
2022-10-20T01:46:06.683Z,11.64
2022-10-20T01:48:37.931Z,11.51
2022-10-20T01:51:06.069Z,11.55
2022-10-20T01:53:34.198Z,11.54
2022-10-20T01:56:03.046Z,11.34
2022-10-20T01:58:56.427Z,11.67
2022-10-20T02:01:36.235Z,11.75
2022-10-20T02:04:05.959Z,11.78
2022-10-20T02:06:43.213Z,11.52
2022-10-20T02:09:16.570Z,11.48
2022-10-20T02:11:53.121Z,11.48
2022-10-20T02:14:24.250Z,11.47
2022-10-20T02:16:56.462Z,11.45
2022-10-20T02:19:26.856Z,11.43
2022-10-20T02:21:57.280Z,11.45
2022-10-20T02:24:28.857Z,11.26
2022-10-20T02:27:00.106Z,11.20
2022-10-20T02:29:34.647Z,11.44
2022-10-20T02:32:02.377Z,11.57
2022-10-20T02:34:29.944Z,11.47
2022-10-20T02:36:59.085Z,11.28
2022-10-20T02:39:27.625Z,11.41
2022-10-20T02:41:55.565Z,11.28
2022-10-20T02:44:23.919Z,11.39
2022-10-20T02:46:52.822Z,11.34
2022-10-20T02:49:21.467Z,11.15
2022-10-20T02:51:49.071Z,10.99
2022-10-20T02:54:16.637Z,10.90
2022-10-20T02:56:44.243Z,11.28
2022-10-20T02:59:14.376Z,11.43
2022-10-20T03:01:42.069Z,11.62
2022-10-20T03:04:11.217Z,11.72
2022-10-20T03:06:38.818Z,11.66
2022-10-20T03:09:06.657Z,11.69
2022-10-20T03:11:34.228Z,11.67
2022-10-20T03:14:01.852Z,11.64
2022-10-20T03:16:29.489Z,11.42
2022-10-20T03:19:00.024Z,11.38
2022-10-20T03:21:32.417Z,11.23
2022-10-20T03:23:59.968Z,11.39
2022-10-20T03:26:27.656Z,11.50
2022-10-20T03:28:55.224Z,11.49
2022-10-20T03:31:22.866Z,11.28
2022-10-20T03:33:50.450Z,11.31
2022-10-20T03:36:18.015Z,11.52
2022-10-20T03:38:46.961Z,11.62
2022-10-20T03:41:14.711Z,11.62
2022-10-20T03:43:42.598Z,11.50
2022-10-20T03:46:12.010Z,11.49
2022-10-20T03:48:42.366Z,11.64
2022-10-20T03:51:10.105Z,11.66
2022-10-20T03:53:37.634Z,11.69
2022-10-20T03:56:11.405Z,11.48
2022-10-20T03:58:39.001Z,11.54
2022-10-20T04:01:09.146Z,11.42
2022-10-20T04:03:36.826Z,11.29
2022-10-20T04:06:04.499Z,11.23
2022-10-20T04:08:32.100Z,11.11
2022-10-20T04:11:00.826Z,11.19
2022-10-20T04:13:29.898Z,11.15
2022-10-20T04:15:57.453Z,11.43
2022-10-20T04:18:25.278Z,11.52
2022-10-20T04:20:52.814Z,11.44
2022-10-20T04:23:20.348Z,11.44
2022-10-20T04:25:48.631Z,11.19
2022-10-20T04:28:17.532Z,11.31
2022-10-20T04:30:47.627Z,11.59
2022-10-20T04:33:15.339Z,11.61
2022-10-20T04:35:43.425Z,11.12
2022-10-20T04:38:11.057Z,11.10
2022-10-20T04:40:38.611Z,10.76
2022-10-20T04:43:06.181Z,11.02
2022-10-20T04:45:33.938Z,11.26
2022-10-20T04:48:05.257Z,11.27
2022-10-20T04:50:33.115Z,11.05
2022-10-20T04:53:00.986Z,10.90
2022-10-20T04:55:28.781Z,11.23
2022-10-20T04:57:56.349Z,11.56
2022-10-20T05:00:23.918Z,11.63
2022-10-20T05:02:51.752Z,11.63
2022-10-20T05:05:20.678Z,11.66
2022-10-20T05:07:48.245Z,11.25
2022-10-20T05:10:15.949Z,11.47
2022-10-20T05:12:43.509Z,11.61
2022-10-20T05:15:11.238Z,10.99
2022-10-20T05:17:38.822Z,11.46
2022-10-20T05:20:07.506Z,11.50
2022-10-20T05:22:36.526Z,11.33
2022-10-20T05:27:52.031Z,11.04
2022-10-20T05:30:19.909Z,10.90
2022-10-20T05:32:48.342Z,10.91
2022-10-20T05:35:16.025Z,11.00
2022-10-20T05:37:44.952Z,10.84
2022-10-20T05:40:13.405Z,10.79
2022-10-20T05:42:40.966Z,10.67
2022-10-20T05:45:10.235Z,10.66
2022-10-20T05:47:37.901Z,10.89
2022-10-20T05:50:06.597Z,10.99
2022-10-20T05:52:36.617Z,11.09
2022-10-20T05:55:06.673Z,11.03
2022-10-20T05:57:34.214Z,10.97
2022-10-20T06:00:01.860Z,10.92
2022-10-20T06:02:29.687Z,10.75
2022-10-20T06:04:57.273Z,10.99
2022-10-20T06:07:24.801Z,10.96
2022-10-20T06:09:52.404Z,10.98
2022-10-20T06:12:21.409Z,11.20
2022-10-20T06:14:49.020Z,11.16
2022-10-20T06:17:16.783Z,11.10
2022-10-20T06:19:44.567Z,11.11
2022-10-20T06:22:13.746Z,11.11
2022-10-20T06:24:41.322Z,11.19
2022-10-20T06:27:08.968Z,11.33
2022-10-20T06:29:37.906Z,11.38
2022-10-20T06:32:06.009Z,11.46
2022-10-20T06:34:33.575Z,11.40
2022-10-20T06:37:01.110Z,11.54
2022-10-20T06:39:28.643Z,11.38
2022-10-20T06:41:56.435Z,11.58
2022-10-20T06:44:25.455Z,11.67
2022-10-20T06:46:54.524Z,11.67
2022-10-20T06:49:23.031Z,11.88
2022-10-20T06:51:50.826Z,12.05
2022-10-20T06:54:19.013Z,12.00
2022-10-20T06:56:46.603Z,12.04
2022-10-20T06:59:14.418Z,12.18
2022-10-20T07:01:43.215Z,12.16
2022-10-20T07:04:15.536Z,12.18
2022-10-20T07:06:45.148Z,12.50
2022-10-20T07:09:14.850Z,12.51
2022-10-20T07:11:43.190Z,12.34
2022-10-20T07:14:12.659Z,12.52
2022-10-20T07:16:40.667Z,12.46
2022-10-20T07:19:08.302Z,12.43
2022-10-20T07:21:40.161Z,12.33
2022-10-20T07:24:10.206Z,12.42
2022-10-20T07:26:40.721Z,12.28
2022-10-20T07:29:09.217Z,12.38
2022-10-20T07:31:39.913Z,12.51
2022-10-20T07:34:26.825Z,12.56
2022-10-20T07:36:57.926Z,12.59
2022-10-20T07:39:25.980Z,12.77
2022-10-20T07:41:53.967Z,12.82
2022-10-20T07:44:21.541Z,12.99
2022-10-20T07:46:49.339Z,12.77
2022-10-20T07:52:06.269Z,13.06
2022-10-20T07:54:33.976Z,12.93
2022-10-20T07:57:01.579Z,13.10
2022-10-20T07:59:29.929Z,13.11
2022-10-20T08:01:59.926Z,13.22
2022-10-20T08:04:27.946Z,13.24
2022-10-20T08:06:55.576Z,13.38
2022-10-20T08:09:25.905Z,13.41
2022-10-20T08:11:55.572Z,13.22
2022-10-20T08:14:26.701Z,13.10
2022-10-20T08:16:56.455Z,13.40
2022-10-20T08:21:02.188Z,13.68
2022-10-20T08:22:15.984Z,14.05
2022-10-20T08:24:44.934Z,13.96
2022-10-20T08:27:12.604Z,13.85
2022-10-20T08:29:40.376Z,13.51
2022-10-20T08:32:08.346Z,13.92
2022-10-20T08:34:35.911Z,14.07
2022-10-20T08:37:03.442Z,14.38
2022-10-20T08:39:31.007Z,14.72
2022-10-20T08:42:09.644Z,15.02
2022-10-20T08:44:40.780Z,15.19
2022-10-20T08:47:18.506Z,15.42
2022-10-20T08:49:47.642Z,15.93
2022-10-20T08:52:16.191Z,15.65
2022-10-20T08:54:44.039Z,16.09
2022-10-20T08:57:27.348Z,15.59
2022-10-20T08:59:57.500Z,15.44
2022-10-20T09:02:25.100Z,15.07
2022-10-20T09:04:56.305Z,15.01
2022-10-20T09:07:29.206Z,14.74
2022-10-20T09:10:05.660Z,14.73
2022-10-20T09:12:35.389Z,14.72
2022-10-20T09:15:04.029Z,14.98
2022-10-20T09:17:31.986Z,15.09
2022-10-20T09:20:01.897Z,14.70
2022-10-20T09:22:34.906Z,15.22
2022-10-20T09:25:05.305Z,14.86
2022-10-20T09:27:36.724Z,15.20
2022-10-20T09:30:17.265Z,15.27
2022-10-20T09:32:46.882Z,15.33
2022-10-20T09:35:29.557Z,15.24
2022-10-20T09:38:04.691Z,15.13
2022-10-20T09:40:32.968Z,14.65
2022-10-20T09:43:08.683Z,15.03
2022-10-20T09:45:40.212Z,15.23
2022-10-20T09:48:22.358Z,15.10
2022-10-20T09:50:55.085Z,15.25
2022-10-20T09:53:27.789Z,15.24
2022-10-20T09:55:56.420Z,15.63
2022-10-20T09:58:29.539Z,15.55
2022-10-20T10:01:00.571Z,15.69
2022-10-20T10:03:29.183Z,15.66
2022-10-20T10:05:58.393Z,15.69
2022-10-20T10:08:28.107Z,15.99
2022-10-20T10:11:00.466Z,15.81
2022-10-20T10:13:33.126Z,15.71
2022-10-20T10:16:03.757Z,16.22
2022-10-20T10:18:31.729Z,16.39
2022-10-20T10:21:02.601Z,16.62
2022-10-20T10:23:31.584Z,16.81
2022-10-20T10:26:02.029Z,16.65
2022-10-20T10:28:41.921Z,16.76
2022-10-20T10:31:20.389Z,16.46
2022-10-20T10:33:49.396Z,16.19
2022-10-20T10:36:26.662Z,16.10
2022-10-20T10:38:56.563Z,16.03
2022-10-20T10:41:36.917Z,15.66
2022-10-20T10:44:13.518Z,15.85
2022-10-20T10:46:44.821Z,15.60
2022-10-20T10:49:47.164Z,15.64
2022-10-20T10:52:30.870Z,15.04
2022-10-20T10:55:30.622Z,15.60
2022-10-20T10:58:12.000Z,15.27
2022-10-20T11:00:53.061Z,15.25
2022-10-20T11:03:40.457Z,15.05
2022-10-20T11:06:18.843Z,15.26
2022-10-20T11:08:59.013Z,15.32
2022-10-20T11:11:41.282Z,15.24
2022-10-20T11:16:57.232Z,15.27
2022-10-20T11:19:48.003Z,15.23
2022-10-20T11:22:29.410Z,15.67
2022-10-20T11:25:08.488Z,15.86
2022-10-20T11:27:39.083Z,15.81
2022-10-20T11:30:16.836Z,15.78
2022-10-20T11:32:50.573Z,15.65
2022-10-20T11:35:30.200Z,15.67
2022-10-20T11:38:12.418Z,15.38
2022-10-20T11:40:41.682Z,15.39
2022-10-20T11:43:17.630Z,15.22
2022-10-20T11:45:51.721Z,15.19
2022-10-20T11:48:27.102Z,15.31
2022-10-20T11:51:22.151Z,15.26
2022-10-20T11:54:04.215Z,15.35
2022-10-20T11:56:57.330Z,15.62
2022-10-20T11:59:41.953Z,15.82
2022-10-20T12:02:32.769Z,15.85
2022-10-20T12:05:18.400Z,15.87
2022-10-20T12:08:28.373Z,15.74
2022-10-20T12:11:04.441Z,15.60
2022-10-20T12:13:41.855Z,15.55
2022-10-20T12:16:09.543Z,15.32
2022-10-20T12:18:37.814Z,15.51
2022-10-20T12:21:08.417Z,15.60
2022-10-20T12:24:02.553Z,15.78
2022-10-20T12:27:05.115Z,15.73
2022-10-20T12:29:53.831Z,15.64
2022-10-20T12:32:55.986Z,15.73
2022-10-20T12:36:05.104Z,15.85
2022-10-20T12:38:34.067Z,15.82
2022-10-20T12:41:03.033Z,15.74
2022-10-20T12:43:52.966Z,15.77
2022-10-20T12:46:23.908Z,15.83
2022-10-20T12:48:57.413Z,15.74
2022-10-20T12:51:33.876Z,15.82
2022-10-20T12:54:08.475Z,15.80
2022-10-20T12:56:40.467Z,15.70
2022-10-20T12:59:21.322Z,15.78
2022-10-20T13:02:41.661Z,15.75
2022-10-20T13:05:51.502Z,15.64
2022-10-20T13:08:28.704Z,15.71
2022-10-20T13:11:18.653Z,15.69
2022-10-20T13:14:23.575Z,15.70
2022-10-20T13:17:00.998Z,15.80
2022-10-20T13:19:35.971Z,15.80
2022-10-20T13:22:33.301Z,15.93
2022-10-20T13:25:03.633Z,16.05
2022-10-20T13:27:31.238Z,16.15
2022-10-20T13:30:00.238Z,15.99
2022-10-20T13:32:34.728Z,16.26
2022-10-20T13:35:10.005Z,16.34
2022-10-20T13:37:56.336Z,15.90
2022-10-20T13:40:36.763Z,15.94
2022-10-20T13:43:20.172Z,16.22
2022-10-20T13:46:03.925Z,16.32
2022-10-20T13:48:46.209Z,16.20
2022-10-20T13:51:20.477Z,16.21
2022-10-20T13:53:52.247Z,15.96
2022-10-20T13:56:25.524Z,15.96
2022-10-20T13:59:06.129Z,15.98
2022-10-20T14:01:37.275Z,15.75
2022-10-20T14:04:24.677Z,15.59
2022-10-20T14:06:52.438Z,15.44
2022-10-20T14:09:22.708Z,15.27
2022-10-20T14:11:53.142Z,15.36
2022-10-20T14:14:24.275Z,15.35
2022-10-20T14:16:57.345Z,15.11
2022-10-20T14:19:28.003Z,15.17
2022-10-20T14:21:57.452Z,15.11
2022-10-20T14:24:31.050Z,15.10
2022-10-20T14:27:00.658Z,15.19
2022-10-20T14:29:31.064Z,15.12
2022-10-20T14:32:00.748Z,15.07
2022-10-20T14:34:31.547Z,15.00
2022-10-20T14:36:59.821Z,14.92
2022-10-20T14:39:35.467Z,15.00
2022-10-20T14:42:05.324Z,15.00
2022-10-20T14:44:33.586Z,14.95
2022-10-20T14:47:05.997Z,15.17
2022-10-20T14:49:37.193Z,15.17
2022-10-20T14:52:09.114Z,15.23
2022-10-20T14:54:40.349Z,15.31
2022-10-20T14:57:39.663Z,15.48
2022-10-20T15:00:31.970Z,15.31
2022-10-20T15:03:06.730Z,15.06
2022-10-20T15:05:40.751Z,14.99
2022-10-20T15:08:11.967Z,14.98
2022-10-20T15:10:41.840Z,15.34
2022-10-20T15:13:25.011Z,15.26
2022-10-20T15:15:56.093Z,15.12
2022-10-20T15:18:25.653Z,15.10
2022-10-20T15:20:54.917Z,15.02
2022-10-20T15:23:24.300Z,15.07
2022-10-20T15:25:54.344Z,15.00
2022-10-20T15:28:30.967Z,14.94
2022-10-20T15:30:59.620Z,15.06
2022-10-20T15:33:28.752Z,15.08
2022-10-20T15:35:56.931Z,15.10
2022-10-20T15:38:25.443Z,15.05
2022-10-20T15:40:53.163Z,14.93
2022-10-20T15:43:20.958Z,15.10
2022-10-20T15:45:53.274Z,15.10
2022-10-20T15:48:23.941Z,15.01
2022-10-20T15:50:53.073Z,15.18
2022-10-20T15:53:21.001Z,15.31
2022-10-20T15:55:48.969Z,15.10
2022-10-20T15:58:16.626Z,14.96
2022-10-20T16:00:44.673Z,15.36
2022-10-20T16:03:16.624Z,15.38
2022-10-20T16:05:44.642Z,15.34
2022-10-20T16:10:43.703Z,15.31
2022-10-20T16:13:12.240Z,15.15
2022-10-20T16:15:41.151Z,15.34
2022-10-20T16:18:10.005Z,15.23
2022-10-20T16:20:38.101Z,15.28
2022-10-20T16:23:05.774Z,14.85
2022-10-20T16:25:35.048Z,14.94
2022-10-20T16:28:02.660Z,15.04
2022-10-20T16:30:30.454Z,15.19
2022-10-20T16:32:58.174Z,15.39
2022-10-20T16:35:25.844Z,15.22
2022-10-20T16:37:53.555Z,15.25
2022-10-20T16:40:21.262Z,15.08
2022-10-20T16:42:50.398Z,14.96
2022-10-20T16:45:18.808Z,14.94
2022-10-20T16:47:46.479Z,14.95
2022-10-20T16:50:14.100Z,15.11
2022-10-20T16:52:41.702Z,15.25
2022-10-20T16:55:10.428Z,15.57
2022-10-20T16:57:39.788Z,15.45
2022-10-20T17:00:10.154Z,15.34
2022-10-20T17:02:38.374Z,14.91
2022-10-20T17:05:09.224Z,14.92
2022-10-20T17:07:37.906Z,15.29
2022-10-20T17:10:06.914Z,14.84
2022-10-20T17:12:34.614Z,15.24
2022-10-20T17:15:02.506Z,15.26
2022-10-20T17:17:31.465Z,15.05
2022-10-20T17:19:59.158Z,15.05
2022-10-20T17:22:29.571Z,15.26
2022-10-20T17:24:58.532Z,15.28
2022-10-20T17:27:26.299Z,15.09
2022-10-20T17:29:55.203Z,15.26
2022-10-20T17:32:26.332Z,15.33
2022-10-20T17:34:55.341Z,14.97
2022-10-20T17:37:22.984Z,14.84
2022-10-20T17:39:50.638Z,15.23
2022-10-20T17:42:18.464Z,15.19
2022-10-20T17:44:46.221Z,15.02
2022-10-20T17:47:13.965Z,14.79
2022-10-20T17:49:41.734Z,14.57
2022-10-20T17:52:10.750Z,14.68
2022-10-20T17:54:38.415Z,14.54
2022-10-20T17:57:06.118Z,14.64
2022-10-20T17:59:38.330Z,14.65
2022-10-20T18:02:15.245Z,14.71
2022-10-20T18:04:43.208Z,14.69
2022-10-20T18:07:12.288Z,14.55
2022-10-20T18:09:40.316Z,14.47
2022-10-20T18:12:08.289Z,14.77
2022-10-20T18:14:36.366Z,14.60
2022-10-20T18:17:04.087Z,14.86
2022-10-20T18:19:31.810Z,14.88
2022-10-20T18:21:59.512Z,14.67
2022-10-20T18:24:28.549Z,14.63
2022-10-20T18:27:27.337Z,14.62
2022-10-20T19:29:15.096Z,14.84
2022-10-20T19:31:50.148Z,14.78
2022-10-20T19:34:25.773Z,14.70
2022-10-20T19:37:12.707Z,14.80
2022-10-20T19:39:44.381Z,14.82
2022-10-20T19:42:58.169Z,14.81
2022-10-20T19:45:43.551Z,14.81
2022-10-20T19:48:19.583Z,14.81
2022-10-20T19:50:54.051Z,14.86
2022-10-20T19:53:23.314Z,14.91
2022-10-20T19:55:55.935Z,14.85
2022-10-20T19:58:31.281Z,14.82
2022-10-20T20:01:02.275Z,14.73
2022-10-20T20:03:34.441Z,14.68
2022-10-20T20:06:06.809Z,14.77
2022-10-20T20:08:35.469Z,14.72
2022-10-20T20:11:04.820Z,14.77
2022-10-20T20:13:33.084Z,14.90
2022-10-20T20:16:07.359Z,14.87
2022-10-20T20:18:35.702Z,14.77
2022-10-20T20:21:06.256Z,14.74
2022-10-20T20:23:47.675Z,14.67
2022-10-20T20:26:23.866Z,14.63
2022-10-20T20:28:53.269Z,14.75
2022-10-20T20:31:23.294Z,14.79
2022-10-20T20:33:52.018Z,15.03
2022-10-20T20:36:19.829Z,14.90
2022-10-20T20:38:47.742Z,14.95
2022-10-20T20:41:18.417Z,14.99
2022-10-20T20:43:46.571Z,15.10
2022-10-20T20:46:17.355Z,15.11
2022-10-20T20:48:46.678Z,15.00
2022-10-20T20:51:15.402Z,15.20
2022-10-20T20:53:43.158Z,15.20
2022-10-20T20:56:13.499Z,15.08
2022-10-20T20:58:41.980Z,15.09
2022-10-20T21:01:13.481Z,15.04
2022-10-20T21:03:42.473Z,14.94
2022-10-20T21:06:13.697Z,14.82
2022-10-20T21:08:43.955Z,14.98
2022-10-20T21:11:14.931Z,14.92
2022-10-20T21:13:44.219Z,14.83
2022-10-20T21:16:13.655Z,14.79
2022-10-20T21:18:43.050Z,15.00
2022-10-20T21:21:13.843Z,15.10
2022-10-20T21:23:41.875Z,15.02
2022-10-20T21:26:11.268Z,15.12
2022-10-20T21:28:39.427Z,15.08
2022-10-20T21:31:07.944Z,15.08
2022-10-20T21:33:36.258Z,14.98
2022-10-20T21:36:05.437Z,14.90
2022-10-20T21:38:36.465Z,14.93
2022-10-20T21:41:04.921Z,15.04
2022-10-20T21:43:34.824Z,15.03
2022-10-20T21:46:13.698Z,15.07
2022-10-20T21:48:41.913Z,15.13
2022-10-20T21:51:12.005Z,15.13
2022-10-20T21:53:41.239Z,15.15
2022-10-20T21:56:09.548Z,15.08
2022-10-20T21:58:37.825Z,15.10
2022-10-20T22:01:12.896Z,15.18
2022-10-20T22:03:41.383Z,15.18
2022-10-20T22:06:10.953Z,15.33
2022-10-20T22:08:39.676Z,15.37
2022-10-20T22:11:11.647Z,15.38
2022-10-20T22:13:39.834Z,15.32
2022-10-20T22:16:08.777Z,15.38
2022-10-20T22:18:36.556Z,15.31
2022-10-20T22:21:04.795Z,15.01
2022-10-20T22:23:34.004Z,15.05
2022-10-20T22:26:02.480Z,15.23
2022-10-20T22:28:32.010Z,15.00
2022-10-20T22:31:02.571Z,15.19
2022-10-20T22:33:30.431Z,15.14
2022-10-20T22:35:58.147Z,15.09
2022-10-20T22:38:25.940Z,15.31
2022-10-20T22:40:53.592Z,15.27
2022-10-20T22:43:21.440Z,15.26
2022-10-20T22:45:50.411Z,15.38
2022-10-20T22:48:18.100Z,15.32
2022-10-20T22:50:45.889Z,15.20
2022-10-20T22:53:14.037Z,15.23
2022-10-20T22:55:41.967Z,15.14
2022-10-20T22:58:10.262Z,15.21
2022-10-20T23:00:40.098Z,15.02
2022-10-20T23:03:09.225Z,15.23
2022-10-20T23:05:37.283Z,15.24
2022-10-20T23:08:05.342Z,15.19
2022-10-20T23:10:33.488Z,15.15
2022-10-20T23:13:01.170Z,15.14
2022-10-20T23:15:28.807Z,15.19
2022-10-20T23:17:56.474Z,15.18
2022-10-20T23:20:25.589Z,15.34
2022-10-20T23:22:53.247Z,15.39
2022-10-20T23:25:20.848Z,15.34
2022-10-20T23:27:48.477Z,15.35
2022-10-20T23:30:16.447Z,15.48
2022-10-20T23:32:44.158Z,15.50
2022-10-20T23:35:11.893Z,15.50
2022-10-20T23:37:41.003Z,15.26
2022-10-20T23:40:09.633Z,15.24
2022-10-20T23:42:37.349Z,15.25
2022-10-20T23:45:05.651Z,15.47
2022-10-20T23:47:33.305Z,15.49
2022-10-20T23:50:00.967Z,15.35
2022-10-20T23:52:28.752Z,15.29
2022-10-20T23:54:57.839Z,15.21
2022-10-20T23:57:25.572Z,15.11
2022-10-20T23:59:53.289Z,15.13
